Carlock, Illinois
Current Conditions -  °F | °C
As of 4:56 PM on Wednesday 22 Oct 2014 (Local Time) from KBMI Reporting Station
Clear Clear  
Wind Chill: 59°   Ceiling: Unl
Heat Index: 59°   Visibility: 10mi
Dew Point: 38°   Wind: 7mph
Humidity: 46%   Direction: 130°SE
Pressure: 30.27"   Gusts: NA
Location:  40.58°N, 89.13°W
Report Text: KBMI 222156Z 13006KT 10SM CLR 15/03 A3027 RMK AO2 T01500033 SLP254
Loading
Personal Weather Stations






























Interactive Weather Map
Tropical Storm Tracking
New forecast layout! Learn more

10-Day Weather Forecast

Advertisements
Track Severe Weather on mobile